Clonakilty, Ireland
Current Conditions -  °F | °C
As of 4:30 PM on Sunday 21 Dec 2014 (Local Time) from EICK Reporting Station
Broken Clouds Broken Clouds  
Wind Chill: 52°   Ceiling: 400
Heat Index: 52°   Visibility: 6mi
Dew Point: 52°   Wind: 16mph
Humidity: 100%   Direction: 250°WSW
Pressure: 30.15"   Gusts: 28mph
Location:  51.62°N, 8.89°W
Report Text: EICK 211630Z 25014G24KT 9999 FEW002 BKN004 BKN007 11/11 Q1021 TEMPO 4000
Loading
Personal Weather Stations






























Interactive Weather Map New forecast layout! Learn more

10-Day Weather Forecast

Advertisements
Track Severe Weather on mobile